Winschoten, Netherlands
Current Conditions -  °F | °C
As of 6:25 PM on Wednesday 26 Nov 2014 (Local Time) from EHGG Reporting Station
Clear Clear  
Wind Chill: 33°   Ceiling: Unl
Heat Index: 39°   Visibility: 4mi
Dew Point: 36°   Wind: 9mph
Humidity: 87%   Direction: 100°E
Pressure: 29.94"   Gusts: NA
Location:  53.14°N, 7.03°E
Report Text: EHGG 261725Z AUTO 10008KT 070V140 7000 NSC 04/02 Q1014 NOSIG
Loading
Personal Weather Stations






























Interactive Weather Map New forecast layout! Learn more

10-Day Weather Forecast

Advertisements
Track Severe Weather on mobile